sensor_id;sensor_type;location;lat;lon;timestamp;pressure;altitude;pressure_sealevel;temperature;humidity
36828;BME280;22766;48.042;11.192;2022-09-01T00:01:28;95307.81;;;13.76;100.00
36828;BME280;22766;48.042;11.192;2022-09-01T00:03:57;95309.75;;;13.82;100.00
36828;BME280;22766;48.042;11.192;2022-09-01T00:06:30;95313.13;;;13.91;100.00
36828;BME280;22766;48.042;11.192;2022-09-01T00:09:01;95312.19;;;13.92;100.00
36828;BME280;22766;48.042;11.192;2022-09-01T00:11:30;95304.22;;;13.93;100.00
36828;BME280;22766;48.042;11.192;2022-09-01T00:13:58;95310.22;;;13.94;100.00
36828;BME280;22766;48.042;11.192;2022-09-01T00:16:27;95311.53;;;13.98;100.00
36828;BME280;22766;48.042;11.192;2022-09-01T00:18:54;95314.13;;;13.98;100.00
36828;BME280;22766;48.042;11.192;2022-09-01T00:21:24;95313.78;;;14.01;100.00
36828;BME280;22766;48.042;11.192;2022-09-01T00:23:51;95306.81;;;14.01;100.00
36828;BME280;22766;48.042;11.192;2022-09-01T00:26:20;95311.81;;;14.03;100.00
36828;BME280;22766;48.042;11.192;2022-09-01T00:28:46;95311.00;;;14.11;100.00
36828;BME280;22766;48.042;11.192;2022-09-01T00:31:13;95304.16;;;14.09;100.00
36828;BME280;22766;48.042;11.192;2022-09-01T00:33:40;95310.19;;;14.10;100.00
36828;BME280;22766;48.042;11.192;2022-09-01T00:36:08;95309.72;;;14.06;100.00
36828;BME280;22766;48.042;11.192;2022-09-01T00:38:35;95307.94;;;13.99;100.00
36828;BME280;22766;48.042;11.192;2022-09-01T00:41:02;95315.06;;;13.97;100.00
36828;BME280;22766;48.042;11.192;2022-09-01T00:43:40;95310.53;;;13.99;100.00
36828;BME280;22766;48.042;11.192;2022-09-01T00:46:11;95314.91;;;13.90;100.00
36828;BME280;22766;48.042;11.192;2022-09-01T00:48:38;95312.31;;;13.98;100.00
36828;BME280;22766;48.042;11.192;2022-09-01T00:51:09;95316.53;;;13.99;100.00
36828;BME280;22766;48.042;11.192;2022-09-01T00:53:37;95307.28;;;13.97;100.00
36828;BME280;22766;48.042;11.192;2022-09-01T00:56:07;95316.84;;;13.96;100.00
36828;BME280;22766;48.042;11.192;2022-09-01T00:58:35;95314.59;;;13.93;100.00
36828;BME280;22766;48.042;11.192;2022-09-01T01:01:05;95303.41;;;13.93;100.00
36828;BME280;22766;48.042;11.192;2022-09-01T01:03:33;95309.72;;;13.90;100.00
36828;BME280;22766;48.042;11.192;2022-09-01T01:06:02;95306.00;;;13.85;100.00
36828;BME280;22766;48.042;11.192;2022-09-01T01:11:18;95300.84;;;13.77;100.00
36828;BME280;22766;48.042;11.192;2022-09-01T01:16:14;95309.59;;;13.84;100.00
36828;BME280;22766;48.042;11.192;2022-09-01T01:18:42;95307.00;;;13.84;100.00
36828;BME280;22766;48.042;11.192;2022-09-01T01:21:19;95298.38;;;13.83;100.00
36828;BME280;22766;48.042;11.192;2022-09-01T01:24:25;95298.22;;;13.93;100.00
36828;BME280;22766;48.042;11.192;2022-09-01T01:26:53;95300.16;;;13.91;100.00
36828;BME280;22766;48.042;11.192;2022-09-01T01:29:35;95300.03;;;13.84;100.00
36828;BME280;22766;48.042;11.192;2022-09-01T01:32:06;95303.41;;;13.85;100.00
36828;BME280;22766;48.042;11.192;2022-09-01T01:34:39;95290.28;;;13.78;100.00
36828;BME280;22766;48.042;11.192;2022-09-01T01:37:10;95296.94;;;13.81;100.00
36828;BME280;22766;48.042;11.192;2022-09-01T01:39:40;95293.84;;;13.77;100.00
36828;BME280;22766;48.042;11.192;2022-09-01T01:42:10;95298.25;;;13.77;100.00
36828;BME280;22766;48.042;11.192;2022-09-01T01:44:38;95292.56;;;13.73;100.00
36828;BME280;22766;48.042;11.192;2022-09-01T01:47:09;95287.88;;;13.69;100.00
36828;BME280;22766;48.042;11.192;2022-09-01T01:49:39;95294.34;;;13.73;100.00
36828;BME280;22766;48.042;11.192;2022-09-01T01:52:10;95287.06;;;13.76;100.00
36828;BME280;22766;48.042;11.192;2022-09-01T01:54:43;95288.81;;;13.76;100.00
36828;BME280;22766;48.042;11.192;2022-09-01T01:57:12;95286.22;;;13.76;100.00
36828;BME280;22766;48.042;11.192;2022-09-01T01:59:43;95280.09;;;13.69;100.00
36828;BME280;22766;48.042;11.192;2022-09-01T02:02:10;95290.94;;;13.72;100.00
36828;BME280;22766;48.042;11.192;2022-09-01T02:04:38;95286.41;;;13.74;100.00
36828;BME280;22766;48.042;11.192;2022-09-01T02:07:11;95285.75;;;13.72;100.00
36828;BME280;22766;48.042;11.192;2022-09-01T02:09:39;95295.00;;;13.67;100.00
36828;BME280;22766;48.042;11.192;2022-09-01T02:12:09;95289.16;;;13.65;100.00
36828;BME280;22766;48.042;11.192;2022-09-01T02:14:41;95290.00;;;13.65;100.00
36828;BME280;22766;48.042;11.192;2022-09-01T02:17:07;95291.44;;;13.68;100.00
36828;BME280;22766;48.042;11.192;2022-09-01T02:19:34;95293.72;;;13.71;100.00
36828;BME280;22766;48.042;11.192;2022-09-01T02:22:07;95289.47;;;13.70;100.00
36828;BME280;22766;48.042;11.192;2022-09-01T02:24:37;95297.59;;;13.67;100.00
36828;BME280;22766;48.042;11.192;2022-09-01T02:27:11;95294.69;;;13.62;100.00
36828;BME280;22766;48.042;11.192;2022-09-01T02:29:41;95293.72;;;13.71;100.00
36828;BME280;22766;48.042;11.192;2022-09-01T02:32:09;95288.81;;;13.68;100.00
36828;BME280;22766;48.042;11.192;2022-09-01T02:34:37;95298.25;;;13.61;100.00
36828;BME280;22766;48.042;11.192;2022-09-01T02:37:05;95292.59;;;13.57;100.00
36828;BME280;22766;48.042;11.192;2022-09-01T02:39:32;95293.22;;;13.59;100.00
36828;BME280;22766;48.042;11.192;2022-09-01T02:41:59;95293.06;;;13.61;100.00
36828;BME280;22766;48.042;11.192;2022-09-01T02:44:28;95295.34;;;13.64;100.00
36828;BME280;22766;48.042;11.192;2022-09-01T02:46:58;95288.19;;;13.66;100.00
36828;BME280;22766;48.042;11.192;2022-09-01T02:49:26;95293.72;;;13.63;100.00
36828;BME280;22766;48.042;11.192;2022-09-01T02:51:57;95297.28;;;13.62;100.00
36828;BME280;22766;48.042;11.192;2022-09-01T02:54:28;95294.69;;;13.62;100.00
36828;BME280;22766;48.042;11.192;2022-09-01T02:56:56;95293.53;;;13.64;100.00
36828;BME280;22766;48.042;11.192;2022-09-01T02:59:25;95295.81;;;13.67;100.00
36828;BME280;22766;48.042;11.192;2022-09-01T03:01:56;95288.69;;;13.61;100.00
36828;BME280;22766;48.042;11.192;2022-09-01T03:04:23;95285.59;;;13.66;100.00
36828;BME280;22766;48.042;11.192;2022-09-01T03:06:53;95284.97;;;13.64;100.00
36828;BME280;22766;48.042;11.192;2022-09-01T03:09:21;95280.09;;;13.61;100.00
36828;BME280;22766;48.042;11.192;2022-09-01T03:11:50;95282.19;;;13.57;100.00
36828;BME280;22766;48.042;11.192;2022-09-01T03:14:19;95277.53;;;13.45;100.00
36828;BME280;22766;48.042;11.192;2022-09-01T03:16:46;95279.13;;;13.38;100.00
36828;BME280;22766;48.042;11.192;2022-09-01T03:19:15;95282.34;;;13.32;100.00
36828;BME280;22766;48.042;11.192;2022-09-01T03:21:43;95277.19;;;13.24;100.00
36828;BME280;22766;48.042;11.192;2022-09-01T03:24:15;95276.19;;;13.17;100.00
36828;BME280;22766;48.042;11.192;2022-09-01T03:26:44;95273.63;;;13.08;100.00
36828;BME280;22766;48.042;11.192;2022-09-01T03:29:16;95275.69;;;13.13;100.00
36828;BME280;22766;48.042;11.192;2022-09-01T03:31:43;95276.19;;;13.17;100.00
36828;BME280;22766;48.042;11.192;2022-09-01T03:34:10;95275.06;;;13.11;100.00
36828;BME280;22766;48.042;11.192;2022-09-01T03:36:45;95270.50;;;13.05;100.00
36828;BME280;22766;48.042;11.192;2022-09-01T03:39:27;95265.63;;;13.02;100.00
36828;BME280;22766;48.042;11.192;2022-09-01T03:41:55;95270.66;;;12.95;100.00
36828;BME280;22766;48.042;11.192;2022-09-01T03:44:25;95261.72;;;12.90;100.00
36828;BME280;22766;48.042;11.192;2022-09-01T03:46:52;95265.75;;;12.84;100.00
36828;BME280;22766;48.042;11.192;2022-09-01T03:49:19;95261.72;;;12.82;100.00
36828;BME280;22766;48.042;11.192;2022-09-01T03:51:54;95262.19;;;12.77;100.00
36828;BME280;22766;48.042;11.192;2022-09-01T03:54:22;95261.69;;;12.74;100.00
36828;BME280;22766;48.042;11.192;2022-09-01T03:56:54;95259.41;;;12.71;100.00
36828;BME280;22766;48.042;11.192;2022-09-01T03:59:22;95257.16;;;12.68;100.00
36828;BME280;22766;48.042;11.192;2022-09-01T04:01:51;95260.72;;;12.67;100.00
36828;BME280;22766;48.042;11.192;2022-09-01T04:04:18;95267.66;;;12.66;100.00
36828;BME280;22766;48.042;11.192;2022-09-01T04:06:45;95257.16;;;12.68;100.00
36828;BME280;22766;48.042;11.192;2022-09-01T04:09:12;95257.16;;;12.68;100.00
36828;BME280;22766;48.042;11.192;2022-09-01T04:11:42;95254.06;;;12.64;100.00
36828;BME280;22766;48.042;11.192;2022-09-01T04:14:14;95259.53;;;12.61;100.00
36828;BME280;22766;48.042;11.192;2022-09-01T04:16:42;95258.75;;;12.61;100.00
36828;BME280;22766;48.042;11.192;2022-09-01T04:19:33;95259.88;;;12.58;100.00
36828;BME280;22766;48.042;11.192;2022-09-01T04:22:02;95252.88;;;12.51;100.00
36828;BME280;22766;48.042;11.192;2022-09-01T04:24:37;95245.44;;;12.48;100.00
36828;BME280;22766;48.042;11.192;2022-09-01T04:27:12;95249.94;;;12.38;100.00
36828;BME280;22766;48.042;11.192;2022-09-01T04:29:40;95243.78;;;12.39;100.00
36828;BME280;22766;48.042;11.192;2022-09-01T04:32:09;95251.25;;;12.42;100.00
36828;BME280;22766;48.042;11.192;2022-09-01T04:34:41;95256.88;;;12.37;100.00
36828;BME280;22766;48.042;11.192;2022-09-01T04:37:15;95256.88;;;12.37;100.00
36828;BME280;22766;48.042;11.192;2022-09-01T04:39:51;95252.53;;;12.38;100.00
36828;BME280;22766;48.042;11.192;2022-09-01T04:42:25;95252.06;;;12.42;100.00
36828;BME280;22766;48.042;11.192;2022-09-01T04:44:56;95248.66;;;12.42;100.00
36828;BME280;22766;48.042;11.192;2022-09-01T04:47:28;95254.50;;;12.44;100.00
36828;BME280;22766;48.042;11.192;2022-09-01T04:50:03;95242.84;;;12.48;100.00
36828;BME280;22766;48.042;11.192;2022-09-01T04:52:39;95245.94;;;12.51;100.00
36828;BME280;22766;48.042;11.192;2022-09-01T04:55:17;95257.75;;;12.54;100.00
36828;BME280;22766;48.042;11.192;2022-09-01T04:57:46;95258.56;;;12.54;100.00
36828;BME280;22766;48.042;11.192;2022-09-01T05:00:18;95259.22;;;12.56;100.00
36828;BME280;22766;48.042;11.192;2022-09-01T05:05:20;95253.06;;;12.65;100.00
36828;BME280;22766;48.042;11.192;2022-09-01T05:07:48;95268.50;;;12.67;100.00
36828;BME280;22766;48.042;11.192;2022-09-01T05:10:21;95261.84;;;12.72;100.00
36828;BME280;22766;48.042;11.192;2022-09-01T05:13:13;95263.78;;;12.78;100.00
36828;BME280;22766;48.042;11.192;2022-09-01T05:15:45;95263.97;;;12.77;100.00
36828;BME280;22766;48.042;11.192;2022-09-01T05:18:15;95261.06;;;12.80;100.00
36828;BME280;22766;48.042;11.192;2022-09-01T05:20:50;95263.16;;;12.84;100.00
36828;BME280;22766;48.042;11.192;2022-09-01T05:23:18;95258.78;;;12.85;100.00
36828;BME280;22766;48.042;11.192;2022-09-01T05:25:47;95255.09;;;12.87;100.00
36828;BME280;22766;48.042;11.192;2022-09-01T05:28:16;95260.28;;;12.95;100.00
36828;BME280;22766;48.042;11.192;2022-09-01T05:30:47;95259.13;;;12.90;100.00
36828;BME280;22766;48.042;11.192;2022-09-01T05:33:14;95252.00;;;12.92;100.00
36828;BME280;22766;48.042;11.192;2022-09-01T05:35:55;95255.59;;;12.99;100.00
36828;BME280;22766;48.042;11.192;2022-09-01T05:38:26;95258.53;;;13.04;100.00
36828;BME280;22766;48.042;11.192;2022-09-01T05:40:59;95252.88;;;13.08;100.00
36828;BME280;22766;48.042;11.192;2022-09-01T05:43:30;95253.19;;;13.13;100.00
36828;BME280;22766;48.042;11.192;2022-09-01T05:45:59;95255.28;;;13.26;100.00
36828;BME280;22766;48.042;11.192;2022-09-01T05:48:34;95258.22;;;13.31;100.00
36828;BME280;22766;48.042;11.192;2022-09-01T05:51:08;95257.72;;;13.44;100.00
36828;BME280;22766;48.042;11.192;2022-09-01T05:53:56;95258.69;;;13.59;100.00
36828;BME280;22766;48.042;11.192;2022-09-01T05:56:29;95251.84;;;13.66;100.00
36828;BME280;22766;48.042;11.192;2022-09-01T05:58:56;95263.22;;;13.73;100.00
36828;BME280;22766;48.042;11.192;2022-09-01T06:01:46;95264.00;;;13.73;100.00
36828;BME280;22766;48.042;11.192;2022-09-01T06:04:16;95265.16;;;13.71;100.00
36828;BME280;22766;48.042;11.192;2022-09-01T06:06:46;95267.75;;;13.79;100.00
36828;BME280;22766;48.042;11.192;2022-09-01T06:09:39;95267.41;;;13.74;100.00
36828;BME280;22766;48.042;11.192;2022-09-01T06:12:08;95268.88;;;13.68;100.00
36828;BME280;22766;48.042;11.192;2022-09-01T06:14:46;95273.78;;;13.63;100.00
36828;BME280;22766;48.042;11.192;2022-09-01T06:17:15;95271.00;;;13.65;100.00
36828;BME280;22766;48.042;11.192;2022-09-01T06:19:42;95271.47;;;13.68;100.00
36828;BME280;22766;48.042;11.192;2022-09-01T06:22:10;95279.44;;;13.59;100.00
36828;BME280;22766;48.042;11.192;2022-09-01T06:24:38;95275.72;;;13.53;100.00
36828;BME280;22766;48.042;11.192;2022-09-01T06:27:09;95282.69;;;13.53;100.00
36828;BME280;22766;48.042;11.192;2022-09-01T06:29:36;95278.31;;;13.53;100.00
36828;BME280;22766;48.042;11.192;2022-09-01T06:32:07;95281.56;;;13.55;100.00
36828;BME280;22766;48.042;11.192;2022-09-01T06:34:41;95284.97;;;13.64;100.00
36828;BME280;22766;48.042;11.192;2022-09-01T06:37:10;95282.16;;;13.73;100.00
36828;BME280;22766;48.042;11.192;2022-09-01T06:39:41;95278.63;;;13.82;100.00
36828;BME280;22766;48.042;11.192;2022-09-01T06:42:09;95279.09;;;13.86;100.00
36828;BME280;22766;48.042;11.192;2022-09-01T06:44:46;95280.56;;;13.88;100.00
36828;BME280;22766;48.042;11.192;2022-09-01T06:47:14;95281.50;;;13.95;100.00
36828;BME280;22766;48.042;11.192;2022-09-01T06:49:41;95282.00;;;13.91;100.00
36828;BME280;22766;48.042;11.192;2022-09-01T06:52:13;95282.66;;;13.85;100.00
36828;BME280;22766;48.042;11.192;2022-09-01T06:54:41;95277.63;;;13.91;100.00
36828;BME280;22766;48.042;11.192;2022-09-01T06:57:10;95283.09;;;13.96;100.00
36828;BME280;22766;48.042;11.192;2022-09-01T06:59:56;95281.44;;;14.20;100.00
36828;BME280;22766;48.042;11.192;2022-09-01T07:02:23;95283.56;;;14.16;100.00
36828;BME280;22766;48.042;11.192;2022-09-01T07:05:15;95290.22;;;14.19;100.00
36828;BME280;22766;48.042;11.192;2022-09-01T07:08:09;95297.00;;;14.20;100.00
36828;BME280;22766;48.042;11.192;2022-09-01T07:11:00;95295.53;;;14.25;100.00
36828;BME280;22766;48.042;11.192;2022-09-01T07:13:47;95293.09;;;14.40;100.00
36828;BME280;22766;48.042;11.192;2022-09-01T07:16:36;95301.19;;;14.45;100.00
36828;BME280;22766;48.042;11.192;2022-09-01T07:19:19;95296.63;;;14.47;100.00
36828;BME280;22766;48.042;11.192;2022-09-01T07:21:56;95306.56;;;14.43;100.00
36828;BME280;22766;48.042;11.192;2022-09-01T07:24:46;95295.00;;;14.46;100.00
36828;BME280;22766;48.042;11.192;2022-09-01T07:27:53;95296.94;;;14.52;100.00
36828;BME280;22766;48.042;11.192;2022-09-01T07:30:26;95298.88;;;14.50;100.00
36828;BME280;22766;48.042;11.192;2022-09-01T07:32:53;95303.28;;;14.49;100.00
36828;BME280;22766;48.042;11.192;2022-09-01T07:35:23;95303.91;;;14.51;100.00
36828;BME280;22766;48.042;11.192;2022-09-01T07:37:51;95304.41;;;14.55;100.00
36828;BME280;22766;48.042;11.192;2022-09-01T07:40:40;95304.59;;;14.76;100.00
36828;BME280;22766;48.042;11.192;2022-09-01T07:43:47;95298.19;;;14.94;100.00
36828;BME280;22766;48.042;11.192;2022-09-01T07:46:36;95310.97;;;15.04;100.00
36828;BME280;22766;48.042;11.192;2022-09-01T07:49:14;95307.34;;;15.13;100.00
36828;BME280;22766;48.042;11.192;2022-09-01T07:52:01;95307.94;;;15.23;100.00
36828;BME280;22766;48.042;11.192;2022-09-01T07:54:30;95314.69;;;15.32;100.00
36828;BME280;22766;48.042;11.192;2022-09-01T07:56:56;95309.81;;;15.29;100.00
36828;BME280;22766;48.042;11.192;2022-09-01T07:59:24;95311.28;;;15.32;100.00
36828;BME280;22766;48.042;11.192;2022-09-01T08:02:02;95314.66;;;15.40;100.00
36828;BME280;22766;48.042;11.192;2022-09-01T08:04:31;95314.94;;;15.68;100.00
36828;BME280;22766;48.042;11.192;2022-09-01T08:06:59;95313.38;;;15.96;100.00
36828;BME280;22766;48.042;11.192;2022-09-01T08:09:27;95319.94;;;15.92;100.00
36828;BME280;22766;48.042;11.192;2022-09-01T08:12:06;95327.22;;;16.11;100.00
36828;BME280;22766;48.042;11.192;2022-09-01T08:14:43;95321.44;;;16.24;100.00
36828;BME280;22766;48.042;11.192;2022-09-01T08:17:11;95324.03;;;16.38;100.00
36828;BME280;22766;48.042;11.192;2022-09-01T08:19:43;95334.22;;;16.48;100.00
36828;BME280;22766;48.042;11.192;2022-09-01T08:22:19;95334.38;;;16.61;100.00
36828;BME280;22766;48.042;11.192;2022-09-01T08:25:00;95338.06;;;16.81;100.00
36828;BME280;22766;48.042;11.192;2022-09-01T08:27:27;95344.53;;;17.00;100.00
36828;BME280;22766;48.042;11.192;2022-09-01T08:29:54;95341.88;;;17.14;100.00
36828;BME280;22766;48.042;11.192;2022-09-01T08:32:21;95338.09;;;17.17;100.00
36828;BME280;22766;48.042;11.192;2022-09-01T08:34:48;95337.16;;;17.24;100.00
36828;BME280;22766;48.042;11.192;2022-09-01T08:37:15;95347.47;;;17.11;100.00
36828;BME280;22766;48.042;11.192;2022-09-01T08:39:42;95341.38;;;16.90;100.00
36828;BME280;22766;48.042;11.192;2022-09-01T08:45:52;95341.13;;;17.20;100.00
36828;BME280;22766;48.042;11.192;2022-09-01T08:48:33;95338.38;;;17.43;100.00
36828;BME280;22766;48.042;11.192;2022-09-01T08:51:42;95347.53;;;17.74;100.00
36828;BME280;22766;48.042;11.192;2022-09-01T08:56:59;95338.13;;;18.29;100.00
36828;BME280;22766;48.042;11.192;2022-09-01T08:59:47;95348.81;;;18.34;100.00
36828;BME280;22766;48.042;11.192;2022-09-01T09:05:58;95341.19;;;19.07;99.71
36828;BME280;22766;48.042;11.192;2022-09-01T09:08:43;95348.03;;;19.62;100.00
36828;BME280;22766;48.042;11.192;2022-09-01T09:16:40;95340.81;;;18.70;94.32
36828;BME280;22766;48.042;11.192;2022-09-01T09:21:52;95347.13;;;18.82;98.51
36828;BME280;22766;48.042;11.192;2022-09-01T09:27:26;95350.75;;;18.87;97.19
36828;BME280;22766;48.042;11.192;2022-09-01T09:29:58;95341.66;;;19.24;98.03
36828;BME280;22766;48.042;11.192;2022-09-01T09:32:51;95350.50;;;19.23;95.38
36828;BME280;22766;48.042;11.192;2022-09-01T09:35:42;95346.97;;;18.96;92.80
36828;BME280;22766;48.042;11.192;2022-09-01T09:46:34;95335.69;;;18.89;94.48
36828;BME280;22766;48.042;11.192;2022-09-01T09:54:38;95329.13;;;19.06;95.23
36828;BME280;22766;48.042;11.192;2022-09-01T09:59:48;95337.91;;;19.46;92.62
36828;BME280;22766;48.042;11.192;2022-09-01T10:02:33;95334.16;;;19.81;89.56
36828;BME280;22766;48.042;11.192;2022-09-01T10:05:21;95338.00;;;19.92;92.34
36828;BME280;22766;48.042;11.192;2022-09-01T10:07:48;95329.53;;;20.22;88.12
36828;BME280;22766;48.042;11.192;2022-09-01T10:13:17;95322.47;;;19.64;86.91
36828;BME280;22766;48.042;11.192;2022-09-01T10:15:53;95325.03;;;19.44;93.77
36828;BME280;22766;48.042;11.192;2022-09-01T10:18:35;95335.31;;;19.52;89.49
36828;BME280;22766;48.042;11.192;2022-09-01T10:21:20;95329.28;;;19.65;89.67
36828;BME280;22766;48.042;11.192;2022-09-01T10:23:49;95322.66;;;20.08;82.42
36828;BME280;22766;48.042;11.192;2022-09-01T10:26:36;95323.88;;;20.25;81.76
36828;BME280;22766;48.042;11.192;2022-09-01T10:31:32;95321.06;;;19.81;76.24
36828;BME280;22766;48.042;11.192;2022-09-01T10:34:04;95321.03;;;19.75;79.94
36828;BME280;22766;48.042;11.192;2022-09-01T10:36:33;95323.84;;;19.47;79.04
36828;BME280;22766;48.042;11.192;2022-09-01T10:39:02;95323.19;;;19.38;81.33
36828;BME280;22766;48.042;11.192;2022-09-01T10:44:29;95313.59;;;19.72;82.50
36828;BME280;22766;48.042;11.192;2022-09-01T10:47:27;95324.47;;;19.82;82.31
36828;BME280;22766;48.042;11.192;2022-09-01T10:49:58;95328.88;;;19.68;85.58
36828;BME280;22766;48.042;11.192;2022-09-01T10:55:28;95329.13;;;19.99;84.00
36828;BME280;22766;48.042;11.192;2022-09-01T11:07:04;95319.66;;;22.33;65.41
36828;BME280;22766;48.042;11.192;2022-09-01T11:09:41;95320.03;;;22.97;58.06
36828;BME280;22766;48.042;11.192;2022-09-01T11:30:46;95293.72;;;25.13;44.42
36828;BME280;22766;48.042;11.192;2022-09-01T11:36:36;95293.06;;;22.41;61.04
36828;BME280;22766;48.042;11.192;2022-09-01T11:42:00;95296.81;;;21.77;60.74
36828;BME280;22766;48.042;11.192;2022-09-01T11:47:16;95291.22;;;23.61;48.00
36828;BME280;22766;48.042;11.192;2022-09-01T11:49:57;95291.44;;;23.48;47.32
36828;BME280;22766;48.042;11.192;2022-09-01T11:52:28;95286.41;;;23.58;49.65
36828;BME280;22766;48.042;11.192;2022-09-01T11:54:57;95282.97;;;23.28;46.62
36828;BME280;22766;48.042;11.192;2022-09-01T11:57:33;95291.47;;;24.24;46.97
36828;BME280;22766;48.042;11.192;2022-09-01T12:00:09;95283.53;;;24.01;46.71
36828;BME280;22766;48.042;11.192;2022-09-01T12:02:48;95287.81;;;24.71;45.51
36828;BME280;22766;48.042;11.192;2022-09-01T12:05:36;95289.56;;;25.06;48.77
36828;BME280;22766;48.042;11.192;2022-09-01T12:08:14;95283.56;;;24.82;43.47
36828;BME280;22766;48.042;11.192;2022-09-01T12:10:49;95281.53;;;23.32;46.40
36828;BME280;22766;48.042;11.192;2022-09-01T12:13:20;95279.47;;;23.16;47.63
36828;BME280;22766;48.042;11.192;2022-09-01T12:16:02;95286.66;;;24.56;43.25
36828;BME280;22766;48.042;11.192;2022-09-01T12:18:49;95279.25;;;25.32;40.87
36828;BME280;22766;48.042;11.192;2022-09-01T12:21:21;95279.13;;;25.83;41.61
36828;BME280;22766;48.042;11.192;2022-09-01T12:23:48;95266.13;;;26.65;38.52
36828;BME280;22766;48.042;11.192;2022-09-01T12:26:20;95277.72;;;27.45;39.06
36828;BME280;22766;48.042;11.192;2022-09-01T12:28:48;95279.28;;;27.20;37.27
36828;BME280;22766;48.042;11.192;2022-09-01T12:31:20;95273.63;;;27.33;35.53
36828;BME280;22766;48.042;11.192;2022-09-01T12:33:48;95271.06;;;27.21;34.98
36828;BME280;22766;48.042;11.192;2022-09-01T12:38:47;95282.50;;;28.33;35.70
36828;BME280;22766;48.042;11.192;2022-09-01T12:43:50;95270.34;;;28.84;34.39
36828;BME280;22766;48.042;11.192;2022-09-01T12:46:43;95274.00;;;29.25;33.56
36828;BME280;22766;48.042;11.192;2022-09-01T12:49:19;95272.72;;;28.81;34.78
36828;BME280;22766;48.042;11.192;2022-09-01T12:51:47;95267.88;;;29.29;32.97
36828;BME280;22766;48.042;11.192;2022-09-01T12:54:14;95274.56;;;28.80;33.49
36828;BME280;22766;48.042;11.192;2022-09-01T12:56:47;95264.31;;;28.99;34.31
36828;BME280;22766;48.042;11.192;2022-09-01T12:59:24;95271.34;;;29.30;31.16
36828;BME280;22766;48.042;11.192;2022-09-01T13:02:25;95267.66;;;28.79;33.00
36828;BME280;22766;48.042;11.192;2022-09-01T13:04:53;95258.44;;;30.04;32.28
36828;BME280;22766;48.042;11.192;2022-09-01T13:07:19;95262.19;;;30.18;31.13
36828;BME280;22766;48.042;11.192;2022-09-01T13:09:46;95263.72;;;30.84;30.40
36828;BME280;22766;48.042;11.192;2022-09-01T13:12:19;95262.84;;;28.76;31.47
36828;BME280;22766;48.042;11.192;2022-09-01T13:14:46;95264.56;;;26.86;34.79
36828;BME280;22766;48.042;11.192;2022-09-01T13:17:13;95260.66;;;27.15;35.86
36828;BME280;22766;48.042;11.192;2022-09-01T13:19:40;95260.31;;;27.06;37.05
36828;BME280;22766;48.042;11.192;2022-09-01T13:22:07;95265.09;;;28.47;34.14
36828;BME280;22766;48.042;11.192;2022-09-01T13:24:34;95262.28;;;29.26;32.39
36828;BME280;22766;48.042;11.192;2022-09-01T13:27:00;95254.88;;;29.33;33.59
36828;BME280;22766;48.042;11.192;2022-09-01T13:29:48;95255.25;;;29.87;33.40
36828;BME280;22766;48.042;11.192;2022-09-01T13:32:15;95252.84;;;30.51;31.33
36828;BME280;22766;48.042;11.192;2022-09-01T13:34:46;95248.06;;;30.17;30.83
36828;BME280;22766;48.042;11.192;2022-09-01T13:37:13;95245.91;;;30.09;30.61
36828;BME280;22766;48.042;11.192;2022-09-01T13:39:39;95246.19;;;29.83;30.21
36828;BME280;22766;48.042;11.192;2022-09-01T13:42:06;95250.16;;;30.66;29.64
36828;BME280;22766;48.042;11.192;2022-09-01T13:44:33;95241.00;;;30.92;29.08
36828;BME280;22766;48.042;11.192;2022-09-01T13:47:01;95238.47;;;29.96;28.95
36828;BME280;22766;48.042;11.192;2022-09-01T13:49:47;95240.81;;;29.63;30.73
36828;BME280;22766;48.042;11.192;2022-09-01T13:52:34;95232.81;;;29.42;31.80
36828;BME280;22766;48.042;11.192;2022-09-01T13:55:01;95235.81;;;29.86;30.89
36828;BME280;22766;48.042;11.192;2022-09-01T13:57:27;95232.34;;;29.76;32.77
36828;BME280;22766;48.042;11.192;2022-09-01T14:00:15;95235.47;;;29.52;31.28
36828;BME280;22766;48.042;11.192;2022-09-01T14:02:47;95236.72;;;27.85;35.48
36828;BME280;22766;48.042;11.192;2022-09-01T14:05:17;95230.28;;;28.07;34.95
36828;BME280;22766;48.042;11.192;2022-09-01T14:07:44;95229.69;;;28.89;32.88
36828;BME280;22766;48.042;11.192;2022-09-01T14:10:11;95232.78;;;29.32;32.04
36828;BME280;22766;48.042;11.192;2022-09-01T14:12:40;95230.38;;;29.26;32.50
36828;BME280;22766;48.042;11.192;2022-09-01T14:15:09;95227.09;;;28.52;33.32
36828;BME280;22766;48.042;11.192;2022-09-01T14:17:42;95226.22;;;29.70;30.13
36828;BME280;22766;48.042;11.192;2022-09-01T14:20:14;95221.44;;;29.72;31.65
36828;BME280;22766;48.042;11.192;2022-09-01T14:22:44;95223.84;;;30.09;32.10
36828;BME280;22766;48.042;11.192;2022-09-01T14:25:12;95225.16;;;29.81;31.66
36828;BME280;22766;48.042;11.192;2022-09-01T14:27:40;95221.78;;;29.04;31.71
36828;BME280;22766;48.042;11.192;2022-09-01T14:30:17;95223.56;;;29.85;30.64
36828;BME280;22766;48.042;11.192;2022-09-01T14:32:45;95220.09;;;30.20;29.75
36828;BME280;22766;48.042;11.192;2022-09-01T14:35:14;95221.16;;;30.24;30.14
36828;BME280;22766;48.042;11.192;2022-09-01T14:37:42;95217.41;;;29.65;31.79
36828;BME280;22766;48.042;11.192;2022-09-01T14:40:13;95211.81;;;29.46;32.18
36828;BME280;22766;48.042;11.192;2022-09-01T14:42:46;95210.00;;;29.82;32.75
36828;BME280;22766;48.042;11.192;2022-09-01T14:45:17;95207.56;;;30.20;30.60
36828;BME280;22766;48.042;11.192;2022-09-01T14:47:47;95201.16;;;30.47;30.08
36828;BME280;22766;48.042;11.192;2022-09-01T14:50:15;95211.84;;;30.11;29.82